sensor_id;sensor_type;location;lat;lon;timestamp;temperature;humidity
70813;DHT22;62099;52.170;5.386;2022-08-11T00:01:00;23.10;49.60
70813;DHT22;62099;52.170;5.386;2022-08-11T00:03:31;23.10;49.70
70813;DHT22;62099;52.170;5.386;2022-08-11T00:06:10;23.00;49.60
70813;DHT22;62099;52.170;5.386;2022-08-11T00:08:41;23.00;49.40
70813;DHT22;62099;52.170;5.386;2022-08-11T00:11:08;23.00;49.50
70813;DHT22;62099;52.170;5.386;2022-08-11T00:13:44;22.90;49.50
70813;DHT22;62099;52.170;5.386;2022-08-11T00:16:17;22.90;49.50
70813;DHT22;62099;52.170;5.386;2022-08-11T00:18:46;22.90;49.70
70813;DHT22;62099;52.170;5.386;2022-08-11T00:21:15;22.80;49.80
70813;DHT22;62099;52.170;5.386;2022-08-11T00:23:45;22.80;49.90
70813;DHT22;62099;52.170;5.386;2022-08-11T00:26:14;22.70;50.10
70813;DHT22;62099;52.170;5.386;2022-08-11T00:28:42;22.70;50.10
70813;DHT22;62099;52.170;5.386;2022-08-11T00:31:25;22.60;50.20
70813;DHT22;62099;52.170;5.386;2022-08-11T00:33:54;22.50;50.70
70813;DHT22;62099;52.170;5.386;2022-08-11T00:36:26;22.40;51.50
70813;DHT22;62099;52.170;5.386;2022-08-11T00:38:54;22.40;52.10
70813;DHT22;62099;52.170;5.386;2022-08-11T00:41:35;22.30;52.60
70813;DHT22;62099;52.170;5.386;2022-08-11T00:44:27;22.20;53.00
70813;DHT22;62099;52.170;5.386;2022-08-11T00:47:09;22.10;53.20
70813;DHT22;62099;52.170;5.386;2022-08-11T01:00:37;21.70;54.90
70813;DHT22;62099;52.170;5.386;2022-08-11T01:03:28;21.60;55.10
70813;DHT22;62099;52.170;5.386;2022-08-11T01:06:30;21.60;55.60
70813;DHT22;62099;52.170;5.386;2022-08-11T01:18:43;21.20;56.30
70813;DHT22;62099;52.170;5.386;2022-08-11T01:30:14;21.00;57.00
70813;DHT22;62099;52.170;5.386;2022-08-11T01:33:06;20.90;57.60
70813;DHT22;62099;52.170;5.386;2022-08-11T01:36:03;20.80;57.50
70813;DHT22;62099;52.170;5.386;2022-08-11T01:48:07;20.60;58.30
70813;DHT22;62099;52.170;5.386;2022-08-11T01:53:30;20.50;58.70
70813;DHT22;62099;52.170;5.386;2022-08-11T01:56:32;20.50;58.80
70813;DHT22;62099;52.170;5.386;2022-08-11T01:59:09;20.40;58.80
70813;DHT22;62099;52.170;5.386;2022-08-11T02:01:40;20.40;59.30
70813;DHT22;62099;52.170;5.386;2022-08-11T02:04:37;20.30;59.60
70813;DHT22;62099;52.170;5.386;2022-08-11T02:07:21;20.30;60.00
70813;DHT22;62099;52.170;5.386;2022-08-11T02:13:23;20.20;60.10
70813;DHT22;62099;52.170;5.386;2022-08-11T02:16:18;20.10;60.30
70813;DHT22;62099;52.170;5.386;2022-08-11T02:18:51;20.10;60.50
70813;DHT22;62099;52.170;5.386;2022-08-11T02:22:22;20.00;60.60
70813;DHT22;62099;52.170;5.386;2022-08-11T02:25:07;20.00;60.50
70813;DHT22;62099;52.170;5.386;2022-08-11T02:27:44;19.90;60.70
70813;DHT22;62099;52.170;5.386;2022-08-11T02:30:15;19.90;60.90
70813;DHT22;62099;52.170;5.386;2022-08-11T02:36:16;19.80;61.00
70813;DHT22;62099;52.170;5.386;2022-08-11T02:41:32;19.70;61.30
70813;DHT22;62099;52.170;5.386;2022-08-11T02:44:33;19.60;61.40
70813;DHT22;62099;52.170;5.386;2022-08-11T02:47:14;19.60;61.50
70813;DHT22;62099;52.170;5.386;2022-08-11T02:49:51;19.60;61.80
70813;DHT22;62099;52.170;5.386;2022-08-11T02:55:31;19.40;62.00
70813;DHT22;62099;52.170;5.386;2022-08-11T02:58:48;19.30;62.10
70813;DHT22;62099;52.170;5.386;2022-08-11T03:01:44;19.20;62.20
70813;DHT22;62099;52.170;5.386;2022-08-11T03:04:21;19.00;62.40
70813;DHT22;62099;52.170;5.386;2022-08-11T03:07:20;19.00;62.90
70813;DHT22;62099;52.170;5.386;2022-08-11T03:10:05;18.90;62.80
70813;DHT22;62099;52.170;5.386;2022-08-11T03:15:47;18.80;63.30
70813;DHT22;62099;52.170;5.386;2022-08-11T03:21:46;18.70;63.60
70813;DHT22;62099;52.170;5.386;2022-08-11T03:30:34;18.50;64.20
70813;DHT22;62099;52.170;5.386;2022-08-11T03:33:26;18.50;64.20
70813;DHT22;62099;52.170;5.386;2022-08-11T03:42:54;18.40;65.20
70813;DHT22;62099;52.170;5.386;2022-08-11T03:48:20;18.30;64.90
70813;DHT22;62099;52.170;5.386;2022-08-11T03:56:51;18.30;65.10
70813;DHT22;62099;52.170;5.386;2022-08-11T04:00:03;18.20;65.20
70813;DHT22;62099;52.170;5.386;2022-08-11T04:17:07;18.20;65.60
70813;DHT22;62099;52.170;5.386;2022-08-11T04:23:08;18.20;65.60
70813;DHT22;62099;52.170;5.386;2022-08-11T04:32:08;18.20;65.70
70813;DHT22;62099;52.170;5.386;2022-08-11T04:43:17;18.30;65.90
70813;DHT22;62099;52.170;5.386;2022-08-11T05:13:04;18.50;65.00
70813;DHT22;62099;52.170;5.386;2022-08-11T05:16:11;18.50;64.90
70813;DHT22;62099;52.170;5.386;2022-08-11T05:18:58;18.50;65.00
70813;DHT22;62099;52.170;5.386;2022-08-11T05:21:51;18.60;65.00
70813;DHT22;62099;52.170;5.386;2022-08-11T05:24:51;18.70;65.00
70813;DHT22;62099;52.170;5.386;2022-08-11T05:28:18;18.80;65.00
70813;DHT22;62099;52.170;5.386;2022-08-11T05:31:12;18.90;65.30
70813;DHT22;62099;52.170;5.386;2022-08-11T05:34:11;19.10;64.70
70813;DHT22;62099;52.170;5.386;2022-08-11T05:37:06;19.20;64.50
70813;DHT22;62099;52.170;5.386;2022-08-11T05:39:56;19.30;64.30
70813;DHT22;62099;52.170;5.386;2022-08-11T05:42:49;19.40;64.20
70813;DHT22;62099;52.170;5.386;2022-08-11T05:45:35;19.50;64.00
70813;DHT22;62099;52.170;5.386;2022-08-11T05:48:35;19.60;63.80
70813;DHT22;62099;52.170;5.386;2022-08-11T05:51:23;19.70;63.70
70813;DHT22;62099;52.170;5.386;2022-08-11T05:54:22;19.80;63.50
70813;DHT22;62099;52.170;5.386;2022-08-11T05:57:29;19.90;63.30
70813;DHT22;62099;52.170;5.386;2022-08-11T06:00:17;20.00;63.10
70813;DHT22;62099;52.170;5.386;2022-08-11T06:02:52;20.10;63.00
70813;DHT22;62099;52.170;5.386;2022-08-11T06:05:31;20.10;62.70
70813;DHT22;62099;52.170;5.386;2022-08-11T06:08:09;20.20;62.50
70813;DHT22;62099;52.170;5.386;2022-08-11T06:10:41;20.30;62.40
70813;DHT22;62099;52.170;5.386;2022-08-11T06:13:09;20.40;62.20
70813;DHT22;62099;52.170;5.386;2022-08-11T06:15:47;20.50;61.90
70813;DHT22;62099;52.170;5.386;2022-08-11T06:18:14;20.50;61.70
70813;DHT22;62099;52.170;5.386;2022-08-11T06:20:48;20.60;61.40
70813;DHT22;62099;52.170;5.386;2022-08-11T06:23:16;20.70;61.20
70813;DHT22;62099;52.170;5.386;2022-08-11T06:25:46;20.80;60.90
70813;DHT22;62099;52.170;5.386;2022-08-11T06:28:14;20.90;60.70
70813;DHT22;62099;52.170;5.386;2022-08-11T06:30:46;20.90;60.30
70813;DHT22;62099;52.170;5.386;2022-08-11T06:33:36;21.00;60.40
70813;DHT22;62099;52.170;5.386;2022-08-11T06:46:51;21.40;59.20
70813;DHT22;62099;52.170;5.386;2022-08-11T06:49:21;21.50;58.90
70813;DHT22;62099;52.170;5.386;2022-08-11T06:52:11;21.50;58.50
70813;DHT22;62099;52.170;5.386;2022-08-11T06:55:21;21.70;58.40
70813;DHT22;62099;52.170;5.386;2022-08-11T06:58:27;21.70;58.00
70813;DHT22;62099;52.170;5.386;2022-08-11T07:01:18;21.80;57.20
70813;DHT22;62099;52.170;5.386;2022-08-11T07:04:01;21.90;57.00
70813;DHT22;62099;52.170;5.386;2022-08-11T07:06:50;22.00;56.70
70813;DHT22;62099;52.170;5.386;2022-08-11T07:12:37;22.20;56.00
70813;DHT22;62099;52.170;5.386;2022-08-11T07:15:30;22.30;55.70
70813;DHT22;62099;52.170;5.386;2022-08-11T07:18:31;22.40;55.40
70813;DHT22;62099;52.170;5.386;2022-08-11T07:21:31;22.50;55.10
70813;DHT22;62099;52.170;5.386;2022-08-11T07:24:37;22.60;55.50
70813;DHT22;62099;52.170;5.386;2022-08-11T07:27:33;22.60;55.10
70813;DHT22;62099;52.170;5.386;2022-08-11T07:30:20;22.70;54.30
70813;DHT22;62099;52.170;5.386;2022-08-11T07:32:50;22.80;54.00
70813;DHT22;62099;52.170;5.386;2022-08-11T07:35:23;22.90;53.70
70813;DHT22;62099;52.170;5.386;2022-08-11T07:37:57;23.00;53.40
70813;DHT22;62099;52.170;5.386;2022-08-11T07:40:29;23.10;53.50
70813;DHT22;62099;52.170;5.386;2022-08-11T07:42:56;23.20;53.00
70813;DHT22;62099;52.170;5.386;2022-08-11T07:45:27;23.30;52.90
70813;DHT22;62099;52.170;5.386;2022-08-11T07:48:14;23.30;52.70
70813;DHT22;62099;52.170;5.386;2022-08-11T07:51:00;23.40;52.50
70813;DHT22;62099;52.170;5.386;2022-08-11T07:53:47;23.50;52.10
70813;DHT22;62099;52.170;5.386;2022-08-11T07:56:34;23.60;52.20
70813;DHT22;62099;52.170;5.386;2022-08-11T07:59:22;23.70;51.80
70813;DHT22;62099;52.170;5.386;2022-08-11T08:02:38;23.80;51.60
70813;DHT22;62099;52.170;5.386;2022-08-11T08:05:24;23.90;51.40
70813;DHT22;62099;52.170;5.386;2022-08-11T08:08:12;24.00;51.20
70813;DHT22;62099;52.170;5.386;2022-08-11T08:10:58;24.10;51.30
70813;DHT22;62099;52.170;5.386;2022-08-11T08:13:52;24.20;50.50
70813;DHT22;62099;52.170;5.386;2022-08-11T08:16:37;24.30;50.20
70813;DHT22;62099;52.170;5.386;2022-08-11T08:19:23;24.40;50.00
70813;DHT22;62099;52.170;5.386;2022-08-11T08:21:50;24.50;49.40
70813;DHT22;62099;52.170;5.386;2022-08-11T08:24:18;24.60;49.20
70813;DHT22;62099;52.170;5.386;2022-08-11T08:26:48;24.70;48.80
70813;DHT22;62099;52.170;5.386;2022-08-11T08:29:35;24.80;48.50
70813;DHT22;62099;52.170;5.386;2022-08-11T08:32:22;24.80;48.20
70813;DHT22;62099;52.170;5.386;2022-08-11T08:34:50;24.90;47.90
70813;DHT22;62099;52.170;5.386;2022-08-11T08:37:19;25.00;47.70
70813;DHT22;62099;52.170;5.386;2022-08-11T08:40:07;25.10;48.00
70813;DHT22;62099;52.170;5.386;2022-08-11T08:42:41;25.10;47.50
70813;DHT22;62099;52.170;5.386;2022-08-11T08:45:12;25.20;47.40
70813;DHT22;62099;52.170;5.386;2022-08-11T08:47:53;25.30;47.20
70813;DHT22;62099;52.170;5.386;2022-08-11T08:50:23;25.40;47.30
70813;DHT22;62099;52.170;5.386;2022-08-11T08:53:13;25.40;47.10
70813;DHT22;62099;52.170;5.386;2022-08-11T08:55:42;25.50;46.80
70813;DHT22;62099;52.170;5.386;2022-08-11T08:58:12;25.60;46.30
70813;DHT22;62099;52.170;5.386;2022-08-11T09:00:42;25.70;46.00
70813;DHT22;62099;52.170;5.386;2022-08-11T09:03:10;25.80;45.90
70813;DHT22;62099;52.170;5.386;2022-08-11T09:05:58;25.90;45.50
70813;DHT22;62099;52.170;5.386;2022-08-11T09:08:25;26.00;45.00
70813;DHT22;62099;52.170;5.386;2022-08-11T09:10:55;26.10;44.20
70813;DHT22;62099;52.170;5.386;2022-08-11T09:13:44;26.20;43.90
70813;DHT22;62099;52.170;5.386;2022-08-11T09:16:29;26.30;44.30
70813;DHT22;62099;52.170;5.386;2022-08-11T09:18:56;26.40;43.60
70813;DHT22;62099;52.170;5.386;2022-08-11T09:21:26;26.50;42.60
70813;DHT22;62099;52.170;5.386;2022-08-11T09:24:13;26.60;42.30
70813;DHT22;62099;52.170;5.386;2022-08-11T09:27:04;26.70;42.40
70813;DHT22;62099;52.170;5.386;2022-08-11T09:29:31;26.80;42.30
70813;DHT22;62099;52.170;5.386;2022-08-11T09:31:58;26.90;42.70
70813;DHT22;62099;52.170;5.386;2022-08-11T09:34:26;27.00;42.20
70813;DHT22;62099;52.170;5.386;2022-08-11T09:36:54;27.10;41.90
70813;DHT22;62099;52.170;5.386;2022-08-11T09:39:59;27.20;42.10
70813;DHT22;62099;52.170;5.386;2022-08-11T09:42:46;27.30;41.50
70813;DHT22;62099;52.170;5.386;2022-08-11T09:45:32;27.40;41.70
70813;DHT22;62099;52.170;5.386;2022-08-11T09:48:06;27.50;41.30
70813;DHT22;62099;52.170;5.386;2022-08-11T09:50:34;27.60;41.00
70813;DHT22;62099;52.170;5.386;2022-08-11T09:53:03;27.70;40.70
70813;DHT22;62099;52.170;5.386;2022-08-11T09:55:52;27.70;40.50
70813;DHT22;62099;52.170;5.386;2022-08-11T09:58:19;27.80;39.90
70813;DHT22;62099;52.170;5.386;2022-08-11T10:01:08;27.90;39.20
70813;DHT22;62099;52.170;5.386;2022-08-11T10:04:11;28.00;39.30
70813;DHT22;62099;52.170;5.386;2022-08-11T10:06:43;28.10;39.40
70813;DHT22;62099;52.170;5.386;2022-08-11T10:09:50;28.10;38.90
70813;DHT22;62099;52.170;5.386;2022-08-11T10:12:26;28.20;38.40
70813;DHT22;62099;52.170;5.386;2022-08-11T10:14:56;28.30;38.20
70813;DHT22;62099;52.170;5.386;2022-08-11T10:17:46;28.50;38.20
70813;DHT22;62099;52.170;5.386;2022-08-11T10:20:34;28.60;36.60
70813;DHT22;62099;52.170;5.386;2022-08-11T10:23:03;28.80;36.40
70813;DHT22;62099;52.170;5.386;2022-08-11T10:25:49;28.90;36.30
70813;DHT22;62099;52.170;5.386;2022-08-11T10:28:37;29.10;36.00
70813;DHT22;62099;52.170;5.386;2022-08-11T10:31:24;29.30;35.30
70813;DHT22;62099;52.170;5.386;2022-08-11T10:34:29;29.40;34.80
70813;DHT22;62099;52.170;5.386;2022-08-11T10:36:57;29.60;34.40
70813;DHT22;62099;52.170;5.386;2022-08-11T10:39:28;29.70;33.90
70813;DHT22;62099;52.170;5.386;2022-08-11T10:41:56;29.80;33.60
70813;DHT22;62099;52.170;5.386;2022-08-11T10:45:04;30.00;33.50
70813;DHT22;62099;52.170;5.386;2022-08-11T10:47:56;30.10;33.60
70813;DHT22;62099;52.170;5.386;2022-08-11T10:50:23;30.20;33.20
70813;DHT22;62099;52.170;5.386;2022-08-11T10:53:09;30.40;32.60
70813;DHT22;62099;52.170;5.386;2022-08-11T10:55:56;30.50;32.50
70813;DHT22;62099;52.170;5.386;2022-08-11T10:58:42;30.60;32.10
70813;DHT22;62099;52.170;5.386;2022-08-11T11:01:32;30.80;31.90
70813;DHT22;62099;52.170;5.386;2022-08-11T11:04:16;30.90;31.80
70813;DHT22;62099;52.170;5.386;2022-08-11T11:07:09;31.00;31.30
70813;DHT22;62099;52.170;5.386;2022-08-11T11:09:48;31.10;31.20
70813;DHT22;62099;52.170;5.386;2022-08-11T11:15:28;31.30;30.50
70813;DHT22;62099;52.170;5.386;2022-08-11T11:18:22;31.40;30.50
70813;DHT22;62099;52.170;5.386;2022-08-11T11:21:02;31.50;30.60
70813;DHT22;62099;52.170;5.386;2022-08-11T11:37:18;32.10;29.80
70813;DHT22;62099;52.170;5.386;2022-08-11T11:39:46;32.30;29.90
70813;DHT22;62099;52.170;5.386;2022-08-11T11:42:13;32.40;29.60
70813;DHT22;62099;52.170;5.386;2022-08-11T11:44:43;32.60;29.30
70813;DHT22;62099;52.170;5.386;2022-08-11T11:47:11;32.80;28.90
70813;DHT22;62099;52.170;5.386;2022-08-11T11:49:41;32.90;28.80
70813;DHT22;62099;52.170;5.386;2022-08-11T11:52:18;33.10;28.40
70813;DHT22;62099;52.170;5.386;2022-08-11T11:54:51;33.30;28.40
70813;DHT22;62099;52.170;5.386;2022-08-11T11:57:21;33.40;28.70
70813;DHT22;62099;52.170;5.386;2022-08-11T12:00:24;33.60;28.70
70813;DHT22;62099;52.170;5.386;2022-08-11T12:03:10;33.90;28.50
70813;DHT22;62099;52.170;5.386;2022-08-11T12:05:37;34.10;29.10
70813;DHT22;62099;52.170;5.386;2022-08-11T12:08:08;34.40;28.40
70813;DHT22;62099;52.170;5.386;2022-08-11T12:10:56;34.60;28.10
70813;DHT22;62099;52.170;5.386;2022-08-11T12:13:44;34.90;28.00
70813;DHT22;62099;52.170;5.386;2022-08-11T12:16:13;35.10;27.60
70813;DHT22;62099;52.170;5.386;2022-08-11T12:19:01;35.40;27.50
70813;DHT22;62099;52.170;5.386;2022-08-11T12:21:29;35.60;27.10
70813;DHT22;62099;52.170;5.386;2022-08-11T12:23:57;35.80;27.30
70813;DHT22;62099;52.170;5.386;2022-08-11T12:26:44;36.20;27.00
70813;DHT22;62099;52.170;5.386;2022-08-11T12:29:35;37.10;26.70
70813;DHT22;62099;52.170;5.386;2022-08-11T12:32:09;38.20;26.30
70813;DHT22;62099;52.170;5.386;2022-08-11T12:34:36;39.00;25.70
70813;DHT22;62099;52.170;5.386;2022-08-11T12:37:04;39.70;25.30
70813;DHT22;62099;52.170;5.386;2022-08-11T12:39:45;40.40;24.90
70813;DHT22;62099;52.170;5.386;2022-08-11T12:42:51;41.20;24.70
70813;DHT22;62099;52.170;5.386;2022-08-11T12:45:54;41.90;24.20
70813;DHT22;62099;52.170;5.386;2022-08-11T12:48:27;42.70;23.80
70813;DHT22;62099;52.170;5.386;2022-08-11T12:51:29;43.20;23.40
70813;DHT22;62099;52.170;5.386;2022-08-11T12:57:05;44.10;24.20
70813;DHT22;62099;52.170;5.386;2022-08-11T13:00:04;44.50;23.00
70813;DHT22;62099;52.170;5.386;2022-08-11T13:02:51;45.00;23.50
70813;DHT22;62099;52.170;5.386;2022-08-11T13:05:38;45.50;22.40
70813;DHT22;62099;52.170;5.386;2022-08-11T13:08:14;45.80;22.00
70813;DHT22;62099;52.170;5.386;2022-08-11T13:10:43;46.10;22.00
70813;DHT22;62099;52.170;5.386;2022-08-11T13:13:29;46.20;21.70
70813;DHT22;62099;52.170;5.386;2022-08-11T13:16:16;46.30;21.70
70813;DHT22;62099;52.170;5.386;2022-08-11T13:18:44;46.60;21.40
70813;DHT22;62099;52.170;5.386;2022-08-11T13:21:11;47.10;21.20
70813;DHT22;62099;52.170;5.386;2022-08-11T13:23:48;47.30;21.30
70813;DHT22;62099;52.170;5.386;2022-08-11T13:26:37;47.70;21.20
70813;DHT22;62099;52.170;5.386;2022-08-11T13:29:23;48.20;21.20
70813;DHT22;62099;52.170;5.386;2022-08-11T13:31:53;48.90;20.90
70813;DHT22;62099;52.170;5.386;2022-08-11T13:34:23;49.20;20.50
70813;DHT22;62099;52.170;5.386;2022-08-11T13:36:57;49.40;20.30
70813;DHT22;62099;52.170;5.386;2022-08-11T13:39:26;49.60;20.40
70813;DHT22;62099;52.170;5.386;2022-08-11T13:41:54;49.90;20.30
70813;DHT22;62099;52.170;5.386;2022-08-11T13:44:24;50.30;20.30
70813;DHT22;62099;52.170;5.386;2022-08-11T13:46:55;50.70;20.30
70813;DHT22;62099;52.170;5.386;2022-08-11T13:49:24;51.00;20.30
70813;DHT22;62099;52.170;5.386;2022-08-11T13:51:51;51.30;20.20
70813;DHT22;62099;52.170;5.386;2022-08-11T13:54:31;51.70;20.30
70813;DHT22;62099;52.170;5.386;2022-08-11T13:57:03;52.10;19.90
70813;DHT22;62099;52.170;5.386;2022-08-11T13:59:39;52.30;19.80
70813;DHT22;62099;52.170;5.386;2022-08-11T14:02:23;52.40;19.70
70813;DHT22;62099;52.170;5.386;2022-08-11T14:05:00;52.50;19.60
70813;DHT22;62099;52.170;5.386;2022-08-11T14:07:38;52.50;19.50
70813;DHT22;62099;52.170;5.386;2022-08-11T14:10:08;52.30;19.40
70813;DHT22;62099;52.170;5.386;2022-08-11T14:12:40;52.10;19.30
70813;DHT22;62099;52.170;5.386;2022-08-11T14:15:34;52.00;19.60
70813;DHT22;62099;52.170;5.386;2022-08-11T14:18:10;52.40;19.60
70813;DHT22;62099;52.170;5.386;2022-08-11T14:20:41;52.80;19.60
70813;DHT22;62099;52.170;5.386;2022-08-11T14:23:31;53.00;19.50
70813;DHT22;62099;52.170;5.386;2022-08-11T14:25:58;53.30;19.40
70813;DHT22;62099;52.170;5.386;2022-08-11T14:28:44;53.50;19.30
70813;DHT22;62099;52.170;5.386;2022-08-11T14:31:14;53.60;19.40
70813;DHT22;62099;52.170;5.386;2022-08-11T14:33:42;54.00;19.30
70813;DHT22;62099;52.170;5.386;2022-08-11T14:36:38;54.20;19.40
70813;DHT22;62099;52.170;5.386;2022-08-11T14:39:11;54.30;19.30
70813;DHT22;62099;52.170;5.386;2022-08-11T14:41:44;54.30;19.50
70813;DHT22;62099;52.170;5.386;2022-08-11T14:44:44;54.60;19.50
70813;DHT22;62099;52.170;5.386;2022-08-11T14:47:33;55.00;19.40
70813;DHT22;62099;52.170;5.386;2022-08-11T14:50:01;55.20;19.40
70813;DHT22;62099;52.170;5.386;2022-08-11T14:52:43;55.40;19.50
70813;DHT22;62099;52.170;5.386;2022-08-11T14:55:12;55.70;19.40
70813;DHT22;62099;52.170;5.386;2022-08-11T14:57:58;55.60;19.20
70813;DHT22;62099;52.170;5.386;2022-08-11T15:00:26;55.60;19.30
70813;DHT22;62099;52.170;5.386;2022-08-11T15:02:54;55.70;19.30
70813;DHT22;62099;52.170;5.386;2022-08-11T15:05:41;55.60;19.20
70813;DHT22;62099;52.170;5.386;2022-08-11T15:08:25;55.50;19.00
70813;DHT22;62099;52.170;5.386;2022-08-11T15:11:12;55.40;19.20
70813;DHT22;62099;52.170;5.386;2022-08-11T15:14:00;55.60;20.10
70813;DHT22;62099;52.170;5.386;2022-08-11T15:16:27;55.80;19.40
70813;DHT22;62099;52.170;5.386;2022-08-11T15:19:14;56.00;20.00
70813;DHT22;62099;52.170;5.386;2022-08-11T15:21:42;55.90;19.10
70813;DHT22;62099;52.170;5.386;2022-08-11T15:24:27;56.00;19.30
70813;DHT22;62099;52.170;5.386;2022-08-11T15:26:57;56.10;19.20
70813;DHT22;62099;52.170;5.386;2022-08-11T15:29:45;56.40;19.30
70813;DHT22;62099;52.170;5.386;2022-08-11T15:32:32;56.80;19.20
70813;DHT22;62099;52.170;5.386;2022-08-11T15:35:18;56.80;19.10
70813;DHT22;62099;52.170;5.386;2022-08-11T15:38:24;56.70;19.10
70813;DHT22;62099;52.170;5.386;2022-08-11T15:40:55;56.80;19.30
70813;DHT22;62099;52.170;5.386;2022-08-11T15:43:45;57.00;19.20
70813;DHT22;62099;52.170;5.386;2022-08-11T15:46:46;56.90;19.10
70813;DHT22;62099;52.170;5.386;2022-08-11T15:49:19;56.50;19.00
70813;DHT22;62099;52.170;5.386;2022-08-11T15:52:01;56.30;19.00
70813;DHT22;62099;52.170;5.386;2022-08-11T15:54:31;56.30;19.10
70813;DHT22;62099;52.170;5.386;2022-08-11T15:57:00;56.40;19.20
70813;DHT22;62099;52.170;5.386;2022-08-11T15:59:30;56.50;19.20
70813;DHT22;62099;52.170;5.386;2022-08-11T16:02:19;56.70;19.30
70813;DHT22;62099;52.170;5.386;2022-08-11T16:05:06;56.90;19.10
70813;DHT22;62099;52.170;5.386;2022-08-11T16:07:34;57.00;19.00
70813;DHT22;62099;52.170;5.386;2022-08-11T16:10:10;56.80;19.00
70813;DHT22;62099;52.170;5.386;2022-08-11T16:15:37;56.80;19.00
70813;DHT22;62099;52.170;5.386;2022-08-11T16:18:30;56.80;19.10
70813;DHT22;62099;52.170;5.386;2022-08-11T16:21:17;56.80;19.10
70813;DHT22;62099;52.170;5.386;2022-08-11T16:24:04;56.70;19.20
70813;DHT22;62099;52.170;5.386;2022-08-11T16:26:32;56.60;19.00
70813;DHT22;62099;52.170;5.386;2022-08-11T16:29:23;56.30;18.90
70813;DHT22;62099;52.170;5.386;2022-08-11T16:31:52;56.20;19.00
70813;DHT22;62099;52.170;5.386;2022-08-11T16:34:41;56.40;19.10
70813;DHT22;62099;52.170;5.386;2022-08-11T16:37:30;56.70;19.10
70813;DHT22;62099;52.170;5.386;2022-08-11T16:40:18;56.70;19.10
70813;DHT22;62099;52.170;5.386;2022-08-11T16:42:47;56.50;18.90
70813;DHT22;62099;52.170;5.386;2022-08-11T16:45:38;56.30;18.80
70813;DHT22;62099;52.170;5.386;2022-08-11T16:48:27;56.20;18.90
70813;DHT22;62099;52.170;5.386;2022-08-11T16:51:03;56.00;18.80
70813;DHT22;62099;52.170;5.386;2022-08-11T16:53:30;55.60;18.90
70813;DHT22;62099;52.170;5.386;2022-08-11T16:56:24;55.20;18.90
70813;DHT22;62099;52.170;5.386;2022-08-11T16:58:54;53.90;18.70
70813;DHT22;62099;52.170;5.386;2022-08-11T17:01:47;51.30;19.70
70813;DHT22;62099;52.170;5.386;2022-08-11T17:07:06;45.40;20.30
70813;DHT22;62099;52.170;5.386;2022-08-11T17:10:32;43.20;21.00
70813;DHT22;62099;52.170;5.386;2022-08-11T17:13:48;41.20;21.80
70813;DHT22;62099;52.170;5.386;2022-08-11T17:16:21;39.90;22.70
70813;DHT22;62099;52.170;5.386;2022-08-11T17:21:30;38.40;23.20
70813;DHT22;62099;52.170;5.386;2022-08-11T17:24:06;37.80;23.50
70813;DHT22;62099;52.170;5.386;2022-08-11T17:26:41;37.50;23.90
70813;DHT22;62099;52.170;5.386;2022-08-11T17:29:40;37.10;24.20
70813;DHT22;62099;52.170;5.386;2022-08-11T17:32:38;36.80;24.20
70813;DHT22;62099;52.170;5.386;2022-08-11T17:35:45;36.50;24.50
70813;DHT22;62099;52.170;5.386;2022-08-11T17:38:17;36.20;24.50
70813;DHT22;62099;52.170;5.386;2022-08-11T17:40:56;36.00;24.80
70813;DHT22;62099;52.170;5.386;2022-08-11T17:43:50;35.70;24.80
70813;DHT22;62099;52.170;5.386;2022-08-11T17:46:36;35.40;25.00
70813;DHT22;62099;52.170;5.386;2022-08-11T17:49:29;35.10;25.30
70813;DHT22;62099;52.170;5.386;2022-08-11T17:52:04;34.90;25.40
70813;DHT22;62099;52.170;5.386;2022-08-11T17:54:51;34.70;25.50
70813;DHT22;62099;52.170;5.386;2022-08-11T17:57:39;34.60;25.60
70813;DHT22;62099;52.170;5.386;2022-08-11T18:00:25;34.50;25.80
70813;DHT22;62099;52.170;5.386;2022-08-11T18:02:53;34.40;25.80
70813;DHT22;62099;52.170;5.386;2022-08-11T18:05:42;34.20;25.90
70813;DHT22;62099;52.170;5.386;2022-08-11T18:08:11;34.00;26.00
70813;DHT22;62099;52.170;5.386;2022-08-11T18:10:57;33.90;26.20
70813;DHT22;62099;52.170;5.386;2022-08-11T18:14:06;33.70;26.30
70813;DHT22;62099;52.170;5.386;2022-08-11T18:16:52;33.50;26.30
70813;DHT22;62099;52.170;5.386;2022-08-11T18:19:38;33.50;26.50
70813;DHT22;62099;52.170;5.386;2022-08-11T18:22:30;33.40;26.60
70813;DHT22;62099;52.170;5.386;2022-08-11T18:25:24;33.40;26.70
70813;DHT22;62099;52.170;5.386;2022-08-11T18:28:13;33.30;26.80
70813;DHT22;62099;52.170;5.386;2022-08-11T18:31:00;33.10;26.80
70813;DHT22;62099;52.170;5.386;2022-08-11T18:33:52;33.00;27.00
70813;DHT22;62099;52.170;5.386;2022-08-11T18:36:39;33.00;27.30
70813;DHT22;62099;52.170;5.386;2022-08-11T18:39:29;32.80;27.10
70813;DHT22;62099;52.170;5.386;2022-08-11T18:42:22;32.70;27.40
70813;DHT22;62099;52.170;5.386;2022-08-11T18:45:10;32.60;27.70
70813;DHT22;62099;52.170;5.386;2022-08-11T18:48:13;32.50;27.80
70813;DHT22;62099;52.170;5.386;2022-08-11T18:51:04;32.40;27.90
70813;DHT22;62099;52.170;5.386;2022-08-11T18:54:06;32.30;28.10
70813;DHT22;62099;52.170;5.386;2022-08-11T18:56:53;32.10;28.30
70813;DHT22;62099;52.170;5.386;2022-08-11T18:59:41;32.00;28.40
70813;DHT22;62099;52.170;5.386;2022-08-11T19:02:27;32.00;28.60
70813;DHT22;62099;52.170;5.386;2022-08-11T19:05:17;31.90;28.70
70813;DHT22;62099;52.170;5.386;2022-08-11T19:08:29;31.70;28.80
70813;DHT22;62099;52.170;5.386;2022-08-11T19:11:18;31.60;29.00
70813;DHT22;62099;52.170;5.386;2022-08-11T19:14:11;31.60;29.20
70813;DHT22;62099;52.170;5.386;2022-08-11T19:16:59;31.50;29.20
70813;DHT22;62099;52.170;5.386;2022-08-11T19:20:08;31.40;29.30
70813;DHT22;62099;52.170;5.386;2022-08-11T19:22:56;31.30;29.50
70813;DHT22;62099;52.170;5.386;2022-08-11T19:25:43;31.10;29.60
70813;DHT22;62099;52.170;5.386;2022-08-11T19:28:29;31.10;29.80
70813;DHT22;62099;52.170;5.386;2022-08-11T19:31:18;31.00;29.90
70813;DHT22;62099;52.170;5.386;2022-08-11T19:34:10;30.90;30.00
70813;DHT22;62099;52.170;5.386;2022-08-11T19:36:55;30.80;30.00
70813;DHT22;62099;52.170;5.386;2022-08-11T19:39:41;30.70;30.10
70813;DHT22;62099;52.170;5.386;2022-08-11T19:42:27;30.60;30.40
70813;DHT22;62099;52.170;5.386;2022-08-11T19:45:14;30.50;30.60
70813;DHT22;62099;52.170;5.386;2022-08-11T19:47:59;30.40;30.60
70813;DHT22;62099;52.170;5.386;2022-08-11T19:50:59;30.30;30.60
70813;DHT22;62099;52.170;5.386;2022-08-11T19:53:46;30.20;30.80
70813;DHT22;62099;52.170;5.386;2022-08-11T19:56:33;30.10;31.00
70813;DHT22;62099;52.170;5.386;2022-08-11T19:59:21;30.10;31.20
70813;DHT22;62099;52.170;5.386;2022-08-11T20:02:06;30.00;31.20
70813;DHT22;62099;52.170;5.386;2022-08-11T20:04:51;29.90;31.30
70813;DHT22;62099;52.170;5.386;2022-08-11T20:07:37;29.90;31.50
70813;DHT22;62099;52.170;5.386;2022-08-11T20:10:23;29.80;31.60